createdAt,value
2022-11-30T00:01:25.261Z,64.72
2022-11-30T00:03:57.263Z,73.57
2022-11-30T00:06:25.577Z,69.82
2022-11-30T00:08:57.378Z,84.72
2022-11-30T00:11:27.505Z,69.78
2022-11-30T00:13:55.084Z,68.20
2022-11-30T00:16:22.738Z,76.13
2022-11-30T00:18:50.260Z,61.30
2022-11-30T00:21:19.735Z,67.60
2022-11-30T00:23:48.516Z,74.07
2022-11-30T00:26:19.009Z,67.78
2022-11-30T00:28:48.540Z,69.53
2022-11-30T00:31:18.590Z,64.35
2022-11-30T00:33:46.271Z,68.93
2022-11-30T00:36:24.713Z,65.90
2022-11-30T00:38:52.456Z,65.93
2022-11-30T00:41:20.388Z,66.93
2022-11-30T00:43:51.108Z,65.88
2022-11-30T00:46:18.260Z,68.35
2022-11-30T00:48:47.706Z,68.40
2022-11-30T00:51:15.058Z,68.82
2022-11-30T00:53:42.462Z,68.18
2022-11-30T00:56:10.631Z,72.03
2022-11-30T00:58:37.887Z,70.53
2022-11-30T01:01:05.411Z,70.40
2022-11-30T01:03:34.730Z,70.55
2022-11-30T01:06:07.612Z,76.80
2022-11-30T01:08:40.245Z,68.43
2022-11-30T01:11:18.290Z,72.68
2022-11-30T01:13:45.369Z,75.28
2022-11-30T01:16:18.596Z,78.47
2022-11-30T01:18:45.903Z,73.43
2022-11-30T01:21:18.337Z,76.63
2022-11-30T01:23:46.068Z,72.32
2022-11-30T01:26:13.552Z,71.88
2022-11-30T01:28:46.823Z,71.35
2022-11-30T01:31:15.141Z,78.28
2022-11-30T01:33:45.210Z,69.22
2022-11-30T01:36:21.544Z,62.33
2022-11-30T01:38:53.203Z,66.93
2022-11-30T01:41:31.069Z,69.13
2022-11-30T01:44:20.149Z,64.50
2022-11-30T01:47:09.322Z,65.38
2022-11-30T01:50:05.138Z,59.80
2022-11-30T01:52:47.239Z,59.92
2022-11-30T01:55:36.083Z,58.60
2022-11-30T01:58:17.668Z,57.80
2022-11-30T02:00:48.776Z,53.63
2022-11-30T02:03:42.363Z,60.70
2022-11-30T02:06:10.022Z,56.67
2022-11-30T02:08:37.204Z,56.65
2022-11-30T02:11:11.284Z,63.33
2022-11-30T02:14:06.008Z,53.60
2022-11-30T02:16:59.087Z,54.72
2022-11-30T02:19:50.818Z,57.35
2022-11-30T02:22:29.785Z,48.17
2022-11-30T02:25:26.017Z,53.97
2022-11-30T02:28:32.838Z,53.55
2022-11-30T02:31:02.449Z,55.17
2022-11-30T02:33:34.058Z,59.10
2022-11-30T02:36:03.837Z,58.95
2022-11-30T02:38:31.001Z,56.30
2022-11-30T02:40:58.042Z,58.53
2022-11-30T02:43:28.532Z,54.00
2022-11-30T02:46:45.164Z,55.65
2022-11-30T02:49:35.931Z,61.30
2022-11-30T02:52:04.712Z,60.50
2022-11-30T02:54:35.081Z,62.20
2022-11-30T02:57:02.124Z,59.75
2022-11-30T02:59:29.872Z,64.03
2022-11-30T03:01:57.547Z,65.40
2022-11-30T03:04:24.717Z,58.60
2022-11-30T03:06:54.258Z,64.10
2022-11-30T03:09:21.345Z,63.90
2022-11-30T03:11:50.415Z,60.97
2022-11-30T03:14:17.389Z,65.53
2022-11-30T03:16:44.463Z,58.10
2022-11-30T03:19:11.476Z,57.40
2022-11-30T03:21:38.577Z,58.00
2022-11-30T03:24:05.949Z,55.47
2022-11-30T03:26:32.989Z,57.05
2022-11-30T03:29:00.084Z,53.33
2022-11-30T03:31:27.221Z,55.33
2022-11-30T03:33:54.315Z,57.47
2022-11-30T03:36:21.334Z,56.22
2022-11-30T03:38:48.509Z,53.63
2022-11-30T03:41:17.973Z,59.47
2022-11-30T03:43:46.891Z,57.63
2022-11-30T03:46:16.673Z,56.20
2022-11-30T03:48:44.203Z,57.13
2022-11-30T03:51:13.379Z,57.08
2022-11-30T03:53:41.476Z,59.22
2022-11-30T03:56:10.680Z,61.95
2022-11-30T03:58:38.455Z,53.97
2022-11-30T04:01:10.918Z,57.75
2022-11-30T04:03:41.198Z,56.25
2022-11-30T04:06:13.449Z,55.38
2022-11-30T04:11:08.932Z,47.60
2022-11-30T04:13:40.115Z,46.65
2022-11-30T04:16:08.389Z,50.60
2022-11-30T04:18:39.125Z,46.78
2022-11-30T04:21:07.373Z,48.38
2022-11-30T04:23:40.332Z,47.05
2022-11-30T04:26:14.790Z,49.60
2022-11-30T04:28:42.452Z,49.90
2022-11-30T04:31:10.101Z,49.75
2022-11-30T04:33:39.868Z,52.70
2022-11-30T04:36:18.869Z,57.38
2022-11-30T04:38:46.422Z,53.03
2022-11-30T04:41:13.808Z,63.28
2022-11-30T04:43:40.879Z,67.30
2022-11-30T04:46:08.188Z,65.70
2022-11-30T04:48:35.654Z,59.58
2022-11-30T04:51:06.201Z,61.40
2022-11-30T04:53:37.897Z,55.50
2022-11-30T04:56:10.172Z,52.50
2022-11-30T04:58:39.051Z,47.13
2022-11-30T05:01:07.183Z,49.88
2022-11-30T05:03:34.286Z,48.33
2022-11-30T05:06:01.599Z,48.58
2022-11-30T05:08:28.739Z,49.10
2022-11-30T05:10:55.792Z,52.55
2022-11-30T05:13:25.291Z,46.90
2022-11-30T05:15:53.984Z,50.15
2022-11-30T05:18:21.304Z,49.20
2022-11-30T05:20:53.220Z,45.92
2022-11-30T05:23:21.232Z,49.22
2022-11-30T05:25:48.639Z,48.42
2022-11-30T05:28:15.990Z,44.17
2022-11-30T05:30:44.010Z,43.35
2022-11-30T05:33:13.593Z,44.40
2022-11-30T05:35:40.658Z,44.30
2022-11-30T05:38:07.817Z,45.63
2022-11-30T05:43:04.724Z,44.72
2022-11-30T05:45:32.094Z,47.83
2022-11-30T05:47:59.161Z,49.17
2022-11-30T05:50:26.281Z,48.22
2022-11-30T05:52:56.612Z,46.45
2022-11-30T05:55:28.976Z,48.55
2022-11-30T05:57:55.970Z,47.22
2022-11-30T06:00:25.394Z,45.58
2022-11-30T06:03:00.405Z,39.13
2022-11-30T06:05:28.467Z,48.67
2022-11-30T06:07:59.306Z,67.32
2022-11-30T06:10:27.389Z,52.67
2022-11-30T06:12:54.369Z,42.65
2022-11-30T06:15:21.429Z,45.70
2022-11-30T06:17:48.441Z,45.42
2022-11-30T06:20:16.195Z,48.00
2022-11-30T06:22:46.694Z,44.75
2022-11-30T06:25:15.052Z,39.33
2022-11-30T06:27:43.745Z,40.13
2022-11-30T06:30:11.891Z,45.63
2022-11-30T06:32:39.011Z,39.35
2022-11-30T06:35:06.554Z,48.45
2022-11-30T06:37:36.806Z,56.70
2022-11-30T06:40:06.999Z,52.35
2022-11-30T06:42:34.991Z,54.95
2022-11-30T06:45:02.193Z,50.97
2022-11-30T06:47:29.212Z,58.22
2022-11-30T06:49:58.922Z,51.17
2022-11-30T06:52:28.905Z,48.03
2022-11-30T06:54:55.853Z,60.72
2022-11-30T06:57:30.450Z,63.88
2022-11-30T06:59:57.904Z,69.93
2022-11-30T07:02:27.153Z,56.55
2022-11-30T07:04:54.188Z,68.65
2022-11-30T07:07:21.563Z,59.55
2022-11-30T07:09:52.277Z,60.60
2022-11-30T07:12:19.439Z,55.78
2022-11-30T07:14:46.733Z,62.08
2022-11-30T07:17:14.077Z,66.53
2022-11-30T07:19:41.148Z,73.43
2022-11-30T07:22:08.128Z,58.00
2022-11-30T07:24:53.421Z,62.72
2022-11-30T07:27:20.436Z,76.10
2022-11-30T07:29:49.042Z,75.65
2022-11-30T07:32:16.098Z,65.63
2022-11-30T07:34:44.356Z,69.07
2022-11-30T07:37:13.541Z,70.07
2022-11-30T07:39:40.664Z,66.95
2022-11-30T07:42:07.966Z,57.60
2022-11-30T07:44:35.326Z,61.85
2022-11-30T07:47:02.665Z,68.32
2022-11-30T07:49:29.651Z,69.90
2022-11-30T07:51:56.751Z,69.82
2022-11-30T07:54:23.734Z,70.47
2022-11-30T07:56:50.734Z,68.35
2022-11-30T07:59:17.965Z,70.40
2022-11-30T08:01:45.130Z,79.70
2022-11-30T08:04:14.987Z,82.75
2022-11-30T08:06:42.235Z,77.30
2022-11-30T08:09:17.866Z,73.53
2022-11-30T08:11:49.182Z,76.55
2022-11-30T08:14:17.670Z,69.30
2022-11-30T08:16:44.836Z,71.10
2022-11-30T08:19:11.896Z,76.32
2022-11-30T08:21:38.895Z,76.65
2022-11-30T08:24:06.268Z,75.25
2022-11-30T08:26:34.421Z,74.70
2022-11-30T08:29:02.289Z,74.40
2022-11-30T08:31:35.930Z,74.57
2022-11-30T08:34:10.843Z,78.65
2022-11-30T08:36:41.853Z,88.22
2022-11-30T08:39:12.459Z,89.13
2022-11-30T08:41:39.489Z,92.40
2022-11-30T08:44:06.876Z,70.18
2022-11-30T08:46:50.890Z,74.75
2022-11-30T08:49:24.488Z,74.88
2022-11-30T08:54:46.056Z,67.05
2022-11-30T08:57:18.842Z,94.00
2022-11-30T08:59:46.588Z,83.78
2022-11-30T09:02:19.616Z,68.80
2022-11-30T09:04:49.376Z,87.38
2022-11-30T09:07:21.374Z,80.38
2022-11-30T09:09:48.497Z,85.10
2022-11-30T09:12:15.543Z,69.78
2022-11-30T09:14:42.818Z,67.55
2022-11-30T09:17:09.994Z,72.35
2022-11-30T09:19:37.222Z,82.28
2022-11-30T09:22:04.315Z,90.50
2022-11-30T09:24:31.396Z,67.30
2022-11-30T09:26:58.513Z,76.65
2022-11-30T09:29:25.591Z,71.40
2022-11-30T09:31:55.714Z,71.50
2022-11-30T09:34:22.705Z,70.95
2022-11-30T09:36:49.714Z,77.72
2022-11-30T09:39:16.815Z,72.63
2022-11-30T09:42:24.378Z,68.88
2022-11-30T09:44:57.154Z,75.82
2022-11-30T09:48:11.548Z,74.45
2022-11-30T09:50:44.109Z,71.75
2022-11-30T09:53:29.715Z,68.32
2022-11-30T09:55:58.946Z,63.83
2022-11-30T09:58:44.954Z,62.38
2022-11-30T10:01:20.838Z,63.63
2022-11-30T10:03:52.881Z,69.28
2022-11-30T10:07:02.697Z,69.57
2022-11-30T10:13:26.812Z,74.63
2022-11-30T10:16:19.278Z,69.22
2022-11-30T10:22:04.939Z,79.85
2022-11-30T10:25:08.712Z,99.05
2022-11-30T10:27:55.568Z,92.60
2022-11-30T10:30:26.227Z,73.07
2022-11-30T10:32:56.634Z,69.25
2022-11-30T10:35:43.294Z,83.28
2022-11-30T10:38:33.937Z,69.68
2022-11-30T10:41:29.005Z,80.20
2022-11-30T10:44:04.075Z,73.55
2022-11-30T10:46:38.358Z,68.68
2022-11-30T10:49:19.917Z,65.95
2022-11-30T10:51:53.613Z,70.60
2022-11-30T10:54:22.820Z,67.93
2022-11-30T10:56:50.012Z,67.03
2022-11-30T10:59:33.666Z,70.70
2022-11-30T11:02:01.401Z,77.00
2022-11-30T11:04:28.675Z,71.93
2022-11-30T11:07:07.248Z,75.15
2022-11-30T11:09:53.594Z,63.53
2022-11-30T11:12:30.751Z,67.25
2022-11-30T11:15:32.355Z,66.93
2022-11-30T11:18:26.254Z,68.43
2022-11-30T11:21:08.194Z,69.72
2022-11-30T11:23:42.523Z,69.28
2022-11-30T11:26:29.603Z,76.63
2022-11-30T11:28:59.658Z,80.88
2022-11-30T11:31:49.179Z,81.15
2022-11-30T11:34:34.506Z,78.13
2022-11-30T11:37:33.881Z,76.43
2022-11-30T11:40:02.368Z,77.78
2022-11-30T11:42:53.054Z,61.03
2022-11-30T11:45:37.144Z,66.93
2022-11-30T11:48:37.704Z,69.15
2022-11-30T11:51:09.380Z,72.68
2022-11-30T11:53:51.699Z,60.83
2022-11-30T11:56:37.788Z,69.38
2022-11-30T11:59:42.247Z,76.40
2022-11-30T12:02:36.457Z,81.93
2022-11-30T12:05:17.780Z,74.80
2022-11-30T12:08:10.355Z,79.70
2022-11-30T12:13:27.276Z,76.85
2022-11-30T12:16:12.390Z,82.40
2022-11-30T12:19:15.164Z,72.45
2022-11-30T12:25:18.623Z,69.78
2022-11-30T12:28:35.093Z,70.22
2022-11-30T12:31:15.826Z,68.25
2022-11-30T12:33:42.876Z,69.88
2022-11-30T12:36:48.491Z,63.00
2022-11-30T12:39:32.331Z,65.90
2022-11-30T12:42:15.338Z,63.90
2022-11-30T12:44:45.965Z,71.13
2022-11-30T12:48:01.820Z,73.43
2022-11-30T12:51:10.948Z,71.28
2022-11-30T12:54:05.641Z,69.40
2022-11-30T12:56:55.842Z,67.30
2022-11-30T12:59:33.739Z,73.03
2022-11-30T13:02:40.948Z,74.97
2022-11-30T13:05:54.790Z,78.72
2022-11-30T13:08:34.975Z,86.10
2022-11-30T13:11:11.724Z,59.40
2022-11-30T13:13:52.700Z,62.63
2022-11-30T13:16:22.788Z,69.47
2022-11-30T13:18:52.946Z,70.88
2022-11-30T13:21:42.161Z,71.63
2022-11-30T13:24:29.155Z,64.38
2022-11-30T13:27:16.229Z,64.80
2022-11-30T13:30:16.967Z,62.67
2022-11-30T13:32:59.455Z,70.70
2022-11-30T13:35:29.597Z,57.67
2022-11-30T13:38:35.879Z,65.95
2022-11-30T13:41:05.713Z,69.63
2022-11-30T13:43:48.109Z,72.60
2022-11-30T13:46:33.023Z,56.20
2022-11-30T13:49:29.081Z,66.65
2022-11-30T13:52:21.577Z,70.07
2022-11-30T13:54:50.776Z,63.40
2022-11-30T13:57:30.411Z,59.60
2022-11-30T14:00:22.914Z,58.67
2022-11-30T14:02:54.507Z,63.97
2022-11-30T14:05:38.722Z,59.15
2022-11-30T14:08:13.913Z,65.93
2022-11-30T14:10:51.680Z,63.92
2022-11-30T14:13:22.766Z,62.13
2022-11-30T14:16:00.486Z,64.00
2022-11-30T14:18:40.487Z,57.67
2022-11-30T14:21:18.573Z,51.88
2022-11-30T14:24:15.797Z,47.33
2022-11-30T14:26:50.485Z,44.60
2022-11-30T14:29:31.502Z,44.97
2022-11-30T14:32:18.461Z,44.05
2022-11-30T14:34:52.309Z,46.45
2022-11-30T14:37:27.154Z,36.22
2022-11-30T14:39:56.753Z,35.08
2022-11-30T14:42:26.323Z,39.30
2022-11-30T14:44:57.674Z,37.42
2022-11-30T14:47:35.751Z,37.03
2022-11-30T14:50:08.341Z,40.58
2022-11-30T14:52:52.108Z,46.58
2022-11-30T14:55:57.575Z,39.85
2022-11-30T14:58:42.310Z,39.50
2022-11-30T15:01:25.410Z,41.03
2022-11-30T15:04:02.820Z,42.75
2022-11-30T15:06:33.420Z,35.40
2022-11-30T15:09:02.366Z,44.72
2022-11-30T15:11:29.908Z,42.85
2022-11-30T15:14:26.075Z,41.13
2022-11-30T15:16:58.078Z,44.35
2022-11-30T15:19:29.140Z,39.47
2022-11-30T15:21:58.368Z,36.47
2022-11-30T15:24:27.014Z,50.22
2022-11-30T15:27:10.596Z,43.90
2022-11-30T15:30:03.154Z,53.42
2022-11-30T15:35:01.090Z,58.45
2022-11-30T15:37:38.969Z,55.70
2022-11-30T15:40:10.916Z,39.88
2022-11-30T15:42:40.549Z,47.45
2022-11-30T15:45:21.747Z,58.97
2022-11-30T15:47:49.171Z,52.90
2022-11-30T15:50:30.933Z,38.72
2022-11-30T15:53:03.801Z,44.05
2022-11-30T15:56:07.677Z,39.97
2022-11-30T15:59:08.202Z,41.25
2022-11-30T16:02:16.001Z,39.38
2022-11-30T16:04:58.268Z,36.97
2022-11-30T16:07:33.429Z,30.33
2022-11-30T16:10:16.459Z,28.13
2022-11-30T16:12:45.024Z,33.78
2022-11-30T16:15:20.033Z,40.72
2022-11-30T16:17:47.336Z,34.40
2022-11-30T16:20:15.879Z,44.50
2022-11-30T16:22:46.184Z,37.08
2022-11-30T16:25:17.372Z,37.78
2022-11-30T16:27:47.783Z,39.55
2022-11-30T16:30:19.258Z,37.83
2022-11-30T16:32:46.990Z,36.67
2022-11-30T16:35:50.900Z,34.85
2022-11-30T16:38:20.348Z,41.28
2022-11-30T16:40:47.596Z,40.35
2022-11-30T16:43:15.232Z,41.33
2022-11-30T16:45:44.192Z,40.53
2022-11-30T16:48:11.332Z,36.90
2022-11-30T16:50:44.638Z,49.42
2022-11-30T16:53:15.281Z,41.47
2022-11-30T16:55:42.909Z,43.13
2022-11-30T16:58:10.177Z,42.35
2022-11-30T17:00:40.129Z,39.42
2022-11-30T17:03:26.524Z,41.17
2022-11-30T17:05:53.565Z,40.55
2022-11-30T17:08:20.867Z,43.83
2022-11-30T17:10:53.074Z,48.60
2022-11-30T17:15:49.325Z,27.27
2022-11-30T17:18:16.352Z,41.42
2022-11-30T17:20:43.392Z,45.40
2022-11-30T17:23:12.874Z,50.13
2022-11-30T17:25:40.027Z,42.28
2022-11-30T17:28:07.075Z,41.08
2022-11-30T17:30:36.620Z,54.45
2022-11-30T17:33:03.720Z,44.97
2022-11-30T17:35:31.139Z,50.38
2022-11-30T17:38:00.385Z,46.55
2022-11-30T17:40:27.372Z,49.90
2022-11-30T17:42:54.382Z,60.13
2022-11-30T17:45:21.399Z,54.47
2022-11-30T17:47:48.433Z,45.90
2022-11-30T17:50:15.593Z,48.38
2022-11-30T17:52:42.685Z,41.78
2022-11-30T17:55:10.244Z,53.47
2022-11-30T17:57:38.626Z,44.40
2022-11-30T18:00:08.661Z,38.95
2022-11-30T18:02:37.925Z,49.70
2022-11-30T18:05:05.706Z,71.22
2022-11-30T18:07:32.861Z,42.40
2022-11-30T18:10:01.824Z,46.08
2022-11-30T18:12:31.462Z,41.88
2022-11-30T18:14:58.549Z,46.08
2022-11-30T18:17:25.648Z,57.33
2022-11-30T18:19:52.658Z,53.17
2022-11-30T18:22:19.775Z,48.67
2022-11-30T18:24:47.223Z,50.13
2022-11-30T18:27:14.518Z,51.13
2022-11-30T18:29:41.945Z,41.20
2022-11-30T18:32:10.480Z,45.05
2022-11-30T18:34:42.467Z,49.35
2022-11-30T18:37:09.463Z,45.05
2022-11-30T18:39:38.530Z,48.58
2022-11-30T18:42:05.524Z,58.75
2022-11-30T18:44:33.114Z,47.83
2022-11-30T18:47:00.149Z,55.50
2022-11-30T18:49:27.198Z,56.75
2022-11-30T18:51:54.221Z,46.28
2022-11-30T18:54:21.308Z,54.92
2022-11-30T18:56:48.260Z,54.38
2022-11-30T18:59:20.845Z,55.58
2022-11-30T19:01:47.949Z,69.32
2022-11-30T19:04:15.046Z,46.60
2022-11-30T19:06:43.282Z,51.63
2022-11-30T19:09:14.491Z,83.07
2022-11-30T19:11:45.663Z,111.07
2022-11-30T19:14:15.307Z,65.18
2022-11-30T19:16:43.871Z,43.70
2022-11-30T19:19:14.095Z,54.03
2022-11-30T19:21:47.955Z,54.78
2022-11-30T19:24:16.405Z,52.03
2022-11-30T19:26:43.394Z,56.63
2022-11-30T19:29:12.047Z,50.63
2022-11-30T19:31:39.441Z,53.40
2022-11-30T19:34:10.808Z,56.20
2022-11-30T19:36:39.582Z,62.72
2022-11-30T19:39:06.681Z,65.40
2022-11-30T19:41:35.763Z,57.63
2022-11-30T19:44:04.273Z,60.20
2022-11-30T19:46:33.194Z,62.20
2022-11-30T19:49:04.144Z,70.00
2022-11-30T19:51:32.087Z,66.97
2022-11-30T19:53:59.791Z,66.80
2022-11-30T19:56:31.593Z,90.55
2022-11-30T19:59:04.378Z,75.30
2022-11-30T20:01:35.052Z,66.15
2022-11-30T20:04:04.845Z,60.90
2022-11-30T20:06:38.439Z,48.90
2022-11-30T20:09:08.563Z,51.63
2022-11-30T20:11:35.613Z,55.75
2022-11-30T20:14:02.901Z,60.55
2022-11-30T20:16:30.221Z,58.92
2022-11-30T20:19:03.417Z,57.55
2022-11-30T20:21:34.421Z,69.72
2022-11-30T20:24:06.742Z,57.28
2022-11-30T20:26:40.417Z,55.45
2022-11-30T20:29:16.357Z,53.40
2022-11-30T20:31:48.477Z,47.67
2022-11-30T20:34:16.631Z,54.65
2022-11-30T20:36:46.984Z,56.35
2022-11-30T20:39:15.520Z,55.83
2022-11-30T20:41:44.844Z,53.95
2022-11-30T20:44:17.023Z,50.33
2022-11-30T20:49:17.985Z,56.58
2022-11-30T20:51:47.013Z,47.35
2022-11-30T20:54:15.641Z,49.38
2022-11-30T20:56:42.706Z,50.95
2022-11-30T20:59:19.563Z,55.92
2022-11-30T21:01:48.122Z,50.75
2022-11-30T21:04:15.182Z,57.53
2022-11-30T21:06:45.634Z,46.70
2022-11-30T21:09:18.164Z,45.58
2022-11-30T21:11:47.074Z,45.97
2022-11-30T21:14:14.833Z,49.72
2022-11-30T21:16:41.964Z,52.08
2022-11-30T21:19:14.481Z,51.00
2022-11-30T21:21:43.649Z,45.10
2022-11-30T21:24:12.049Z,47.67
2022-11-30T21:26:42.705Z,41.47
2022-11-30T21:29:15.949Z,41.03
2022-11-30T21:31:43.682Z,39.10
2022-11-30T21:34:13.834Z,38.70
2022-11-30T21:36:40.886Z,46.08
2022-11-30T21:39:15.734Z,42.72
2022-11-30T21:41:42.867Z,41.28
2022-11-30T21:44:15.344Z,48.90
2022-11-30T21:46:45.645Z,41.38
2022-11-30T21:49:14.997Z,46.85
2022-11-30T21:51:42.805Z,59.20
2022-11-30T21:54:13.154Z,45.88
2022-11-30T21:56:44.939Z,45.47
2022-11-30T21:59:14.728Z,41.75
2022-11-30T22:01:47.767Z,52.40
2022-11-30T22:04:15.767Z,47.65
2022-11-30T22:06:43.498Z,55.80
2022-11-30T22:09:17.059Z,45.42
2022-11-30T22:11:45.543Z,53.08
2022-11-30T22:14:16.288Z,44.20
2022-11-30T22:16:43.950Z,38.83
2022-11-30T22:19:11.295Z,46.80
2022-11-30T22:21:38.659Z,47.22
2022-11-30T22:24:09.813Z,52.63
2022-11-30T22:26:42.652Z,44.90
2022-11-30T22:29:22.620Z,54.70
2022-11-30T22:31:52.830Z,57.42
2022-11-30T22:34:21.099Z,44.47
2022-11-30T22:36:50.759Z,46.78
2022-11-30T22:39:20.718Z,49.70
2022-11-30T22:41:54.569Z,52.05
2022-11-30T22:44:26.542Z,45.30
2022-11-30T22:46:53.727Z,53.35
2022-11-30T22:49:22.048Z,58.63
2022-11-30T22:51:49.701Z,56.05
2022-11-30T22:54:17.349Z,46.00
2022-11-30T22:56:46.748Z,48.80
2022-11-30T22:59:14.542Z,50.28
2022-11-30T23:01:47.778Z,55.15
2022-11-30T23:04:21.287Z,53.15
2022-11-30T23:06:50.051Z,53.88
2022-11-30T23:09:22.915Z,59.25
2022-11-30T23:11:52.847Z,50.53
2022-11-30T23:14:20.200Z,53.80
2022-11-30T23:16:49.436Z,45.05
2022-11-30T23:19:16.801Z,46.45
2022-11-30T23:21:48.871Z,56.65
2022-11-30T23:26:51.093Z,47.00
2022-11-30T23:29:21.125Z,54.85
2022-11-30T23:31:48.635Z,44.10
2022-11-30T23:34:22.332Z,44.45
2022-11-30T23:36:50.472Z,55.95
2022-11-30T23:39:19.507Z,53.85
2022-11-30T23:41:49.116Z,51.55
2022-11-30T23:44:16.469Z,51.25
2022-11-30T23:46:43.539Z,50.72
2022-11-30T23:49:14.239Z,43.80
2022-11-30T23:51:42.003Z,50.42
2022-11-30T23:54:09.394Z,46.05
2022-11-30T23:56:36.476Z,46.50
2022-11-30T23:59:03.566Z,50.63
